Time;durP1;ratioP1;P1;durP2;ratioP2;P2;SDS_P1;SDS_P2;PMS_P1;PMS_P2;Temp;Humidity;BMP_temperature;BMP_pressure;BME280_temperature;BME280_humidity;BME280_pressure;Samples;Min_cycle;Max_cycle;Signal;HPM_P1;HPM_P2
2023/07/31 00:00:10;;;;;;;0.30;0.30;;;;;;;18.54;73.48;95608.69;4355766;32;20260;-61
2023/07/31 00:02:36;;;;;;;0.20;0.20;;;;;;;18.54;73.95;95605.22;4340236;32;20189;-61
2023/07/31 00:05:01;;;;;;;0.40;0.40;;;;;;;18.40;73.78;95602.87;4337949;32;20300;-62
2023/07/31 00:07:27;;;;;;;0.77;0.53;;;;;;;18.51;73.83;95601.31;4353705;32;20204;-61
2023/07/31 00:09:53;;;;;;;0.50;0.50;;;;;;;18.39;73.88;95598.62;4353720;32;20230;-61
2023/07/31 00:12:19;;;;;;;1.20;0.73;;;;;;;18.52;73.03;95602.09;4353078;32;20189;-61
2023/07/31 00:14:44;;;;;;;0.23;0.23;;;;;;;18.37;73.77;95600.88;4343847;32;20220;-61
2023/07/31 00:17:09;;;;;;;0.50;0.50;;;;;;;18.38;73.92;95602.44;4350553;32;20264;-61
2023/07/31 00:19:35;;;;;;;0.70;0.70;;;;;;;18.44;73.75;95601.09;4350909;32;20224;-61
2023/07/31 00:22:00;;;;;;;0.30;0.30;;;;;;;18.35;73.80;95597.72;4357770;32;20181;-61
2023/07/31 00:24:26;;;;;;;2.50;0.70;;;;;;;18.30;73.84;95602.53;4353215;32;20187;-61
2023/07/31 00:26:51;;;;;;;1.20;0.50;;;;;;;18.39;72.92;95598.62;4339717;32;20226;-61
2023/07/31 00:29:16;;;;;;;0.40;0.40;;;;;;;18.27;73.49;95587.13;4347468;32;20260;-61
2023/07/31 00:31:42;;;;;;;0.43;0.43;;;;;;;18.30;74.04;95592.56;4339719;32;20207;-61
2023/07/31 00:34:07;;;;;;;0.30;0.30;;;;;;;18.35;74.27;95594.25;4339778;32;20185;-62
2023/07/31 00:36:32;;;;;;;0.57;0.57;;;;;;;18.31;74.32;95590.66;4341516;32;20213;-61
2023/07/31 00:38:58;;;;;;;0.77;0.77;;;;;;;18.29;73.82;95591.00;4339553;32;20213;-61
2023/07/31 00:41:23;;;;;;;1.33;1.23;;;;;;;18.33;73.66;95577.69;4355475;32;20205;-61
2023/07/31 00:43:48;;;;;;;0.70;0.70;;;;;;;18.22;74.54;95584.62;4336223;32;20185;-61
2023/07/31 00:46:13;;;;;;;2.67;1.03;;;;;;;18.33;73.75;95583.06;4352751;32;20181;-61
2023/07/31 00:48:39;;;;;;;1.37;0.50;;;;;;;18.25;74.66;95584.75;4346712;32;20185;-62
2023/07/31 00:51:04;;;;;;;0.40;0.40;;;;;;;18.32;74.58;95579.59;4353972;32;20278;-61
2023/07/31 00:53:30;;;;;;;0.50;0.50;;;;;;;18.20;74.98;95579.59;4350667;32;20201;-61
2023/07/31 00:55:56;;;;;;;1.00;0.70;;;;;;;18.11;75.68;95578.91;4349534;32;20240;-62
2023/07/31 00:58:21;;;;;;;0.63;0.63;;;;;;;18.05;76.28;95577.59;4353690;32;20200;-61
2023/07/31 01:00:46;;;;;;;1.20;0.50;;;;;;;18.10;75.84;95580.03;4367374;32;20181;-61
2023/07/31 01:03:12;;;;;;;0.47;0.40;;;;;;;18.06;75.91;95573.78;4339947;32;20260;-61
2023/07/31 01:06:01;;;;;;;0.50;0.50;;;;;;;18.19;75.68;95572.66;4352988;32;20224;-61
2023/07/31 01:08:30;;;;;;;0.67;0.67;;;;;;;18.19;75.98;95575.34;4355389;32;20201;-61
2023/07/31 01:11:02;;;;;;;0.40;0.40;;;;;;;18.13;75.93;95580.16;4345113;32;20267;-61
2023/07/31 01:13:28;;;;;;;0.60;0.60;;;;;;;18.10;75.55;95570.06;4335745;32;20185;-61
2023/07/31 01:15:53;;;;;;;0.87;0.47;;;;;;;17.96;76.33;95563.47;4345033;32;20240;-61
2023/07/31 01:18:19;;;;;;;0.60;0.60;;;;;;;18.01;75.86;95561.34;4342479;32;20212;-61
2023/07/31 01:20:53;;;;;;;0.50;0.50;;;;;;;18.00;76.27;95561.69;4353747;32;20181;-61
2023/07/31 01:23:43;;;;;;;0.40;0.40;;;;;;;18.01;76.61;95555.19;4344824;32;20194;-61
2023/07/31 01:26:16;;;;;;;0.50;0.50;;;;;;;17.94;76.81;95554.97;4342215;32;20196;-62
2023/07/31 01:28:55;;;;;;;1.90;0.97;;;;;;;18.12;76.50;95559.78;4332246;32;20181;-61
2023/07/31 01:31:24;;;;;;;0.30;0.30;;;;;;;18.10;76.81;95550.50;4348744;32;20203;-62
2023/07/31 01:33:52;;;;;;;0.33;0.30;;;;;;;18.10;76.61;95553.97;4341882;32;20181;-61
2023/07/31 01:36:18;;;;;;;0.47;0.47;;;;;;;18.13;76.12;95542.56;4354405;32;20189;-61
2023/07/31 01:38:43;;;;;;;0.20;0.20;;;;;;;18.19;75.97;95545.81;4340217;32;20224;-61
2023/07/31 01:41:08;;;;;;;0.30;0.30;;;;;;;18.05;75.81;95543.47;4332960;32;20227;-61
2023/07/31 01:43:33;;;;;;;0.53;0.53;;;;;;;18.12;76.02;95545.56;4335864;32;20212;-62
2023/07/31 01:45:59;;;;;;;0.77;0.77;;;;;;;18.11;76.14;95539.41;4348044;32;20220;-61
2023/07/31 01:48:24;;;;;;;0.40;0.40;;;;;;;18.13;76.07;95533.72;4339271;32;20292;-61
2023/07/31 01:50:49;;;;;;;1.47;0.50;;;;;;;18.08;76.37;95542.00;4352588;32;20185;-61
2023/07/31 01:53:15;;;;;;;10.03;1.27;;;;;;;17.99;76.34;95536.75;4351225;32;20176;-61
2023/07/31 01:55:40;;;;;;;0.40;0.40;;;;;;;18.07;76.58;95535.88;4342642;32;20374;-61
2023/07/31 01:58:05;;;;;;;0.47;0.47;;;;;;;18.18;76.41;95545.03;4349025;32;20177;-61
2023/07/31 02:00:31;;;;;;;0.57;0.57;;;;;;;18.18;76.31;95533.50;4347231;32;20189;-61
2023/07/31 02:02:56;;;;;;;0.50;0.40;;;;;;;18.10;76.94;95539.75;4336220;32;20178;-61
2023/07/31 02:05:21;;;;;;;0.67;0.67;;;;;;;18.07;77.08;95535.06;4341867;32;20189;-62
2023/07/31 02:07:47;;;;;;;0.57;0.57;;;;;;;18.11;76.82;95527.87;4337517;32;20252;-61
2023/07/31 02:10:12;;;;;;;0.53;0.53;;;;;;;18.14;77.00;95537.97;4328116;32;20236;-61
2023/07/31 02:12:38;;;;;;;1.07;0.20;;;;;;;18.09;77.04;95530.91;4340822;32;20197;-61
2023/07/31 02:15:03;;;;;;;0.20;0.20;;;;;;;18.19;76.82;95527.78;4347547;32;20258;-61
2023/07/31 02:17:29;;;;;;;0.67;0.67;;;;;;;18.19;77.33;95529.69;4344992;32;20304;-61
2023/07/31 02:19:54;;;;;;;0.40;0.40;;;;;;;18.13;77.50;95529.13;4350329;32;20177;-61
2023/07/31 02:22:20;;;;;;;0.37;0.37;;;;;;;18.21;77.10;95516.72;4334099;32;20181;-61
2023/07/31 02:24:45;;;;;;;0.40;0.40;;;;;;;18.16;77.28;95516.94;4342319;32;20199;-61
2023/07/31 02:27:11;;;;;;;0.83;0.83;;;;;;;18.16;77.24;95512.34;4332914;32;20231;-61
2023/07/31 02:29:36;;;;;;;0.60;0.60;;;;;;;18.21;77.44;95505.97;4335850;32;20188;-61
2023/07/31 02:32:01;;;;;;;0.20;0.20;;;;;;;18.24;76.64;95508.00;4338108;32;20185;-61
2023/07/31 02:34:26;;;;;;;0.60;0.60;;;;;;;18.26;76.78;95507.66;4355005;32;20185;-61
2023/07/31 02:36:52;;;;;;;1.37;0.97;;;;;;;18.25;76.68;95516.81;4342073;32;20193;-61
2023/07/31 02:39:17;;;;;;;0.50;0.50;;;;;;;18.17;77.25;95505.84;4352938;32;20176;-61
2023/07/31 02:41:42;;;;;;;0.83;0.53;;;;;;;18.19;77.43;95502.84;4353140;32;20181;-61
2023/07/31 02:44:08;;;;;;;4.83;0.93;;;;;;;18.22;77.39;95494.09;4356301;32;20193;-61
2023/07/31 02:46:33;;;;;;;0.63;0.53;;;;;;;18.23;77.36;95497.59;4337418;32;20217;-62
2023/07/31 02:48:58;;;;;;;1.70;0.80;;;;;;;18.19;77.24;95502.84;4352961;32;20189;-61
2023/07/31 02:51:24;;;;;;;0.50;0.50;;;;;;;18.11;77.91;95491.09;4331640;32;20233;-61
2023/07/31 02:53:49;;;;;;;0.80;0.80;;;;;;;18.22;77.63;95485.28;4338648;32;20245;-62
2023/07/31 02:56:14;;;;;;;1.00;0.90;;;;;;;18.13;78.12;95482.69;4335262;32;20173;-61
2023/07/31 02:58:40;;;;;;;0.40;0.40;;;;;;;18.21;78.02;95487.16;4349793;32;20279;-61
2023/07/31 03:01:05;;;;;;;0.70;0.70;;;;;;;18.13;78.51;95486.16;4344218;32;20311;-61
2023/07/31 03:03:30;;;;;;;0.30;0.30;;;;;;;18.12;78.75;95487.28;4351017;32;20197;-61
2023/07/31 03:05:56;;;;;;;0.50;0.50;;;;;;;18.00;78.91;95483.81;4354362;32;20180;-62
2023/07/31 03:08:21;;;;;;;5.17;0.80;;;;;;;17.99;79.05;95488.41;4336596;32;20277;-62
2023/07/31 03:10:46;;;;;;;0.30;0.30;;;;;;;18.03;78.45;95485.84;4345178;32;20192;-61
2023/07/31 03:13:12;;;;;;;0.60;0.60;;;;;;;17.95;78.99;95481.37;4342518;32;20197;-61
2023/07/31 03:15:37;;;;;;;0.70;0.70;;;;;;;17.76;80.11;95485.38;4354984;32;20219;-62
2023/07/31 03:18:02;;;;;;;2.07;0.57;;;;;;;17.91;79.48;95481.25;4340992;32;20203;-61
2023/07/31 03:20:28;;;;;;;1.00;1.00;;;;;;;17.87;79.85;95484.97;4348540;32;20189;-61
2023/07/31 03:22:53;;;;;;;2.63;0.90;;;;;;;17.90;79.94;95474.31;4348274;32;20212;-61
2023/07/31 03:25:18;;;;;;;4.03;1.37;;;;;;;17.75;80.51;95483.81;4350579;32;20185;-61
2023/07/31 03:27:44;;;;;;;0.50;0.50;;;;;;;17.66;80.84;95475.09;4354294;32;20260;-61
2023/07/31 03:30:09;;;;;;;1.17;1.10;;;;;;;17.65;80.90;95484.28;4340094;32;20186;-61
2023/07/31 03:32:35;;;;;;;1.77;0.70;;;;;;;17.73;80.85;95482.59;4344443;32;20236;-61
2023/07/31 03:35:00;;;;;;;0.87;0.87;;;;;;;17.62;81.21;95487.59;4349759;32;20215;-61
2023/07/31 03:37:26;;;;;;;0.93;0.93;;;;;;;17.60;81.42;95487.13;4347898;32;20322;-62
2023/07/31 03:39:51;;;;;;;4.30;1.40;;;;;;;17.63;81.40;95491.06;4337694;32;20189;-62
2023/07/31 03:42:16;;;;;;;0.63;0.63;;;;;;;17.64;81.50;95493.44;4347752;32;20200;-62
2023/07/31 03:44:42;;;;;;;0.40;0.40;;;;;;;17.63;81.84;95491.06;4346768;32;20235;-61
2023/07/31 03:47:07;;;;;;;0.50;0.50;;;;;;;17.57;82.38;95493.16;4350946;32;20249;-61
2023/07/31 03:49:32;;;;;;;0.90;0.90;;;;;;;17.70;81.85;95489.41;4344922;32;20201;-62
2023/07/31 03:51:58;;;;;;;0.50;0.50;;;;;;;17.58;82.40;95494.72;4342137;32;20252;-61
2023/07/31 03:54:23;;;;;;;0.83;0.83;;;;;;;17.51;82.98;95497.16;4344679;32;20185;-61
2023/07/31 03:56:49;;;;;;;0.70;0.70;;;;;;;17.53;82.83;95494.94;4335334;32;20193;-61
2023/07/31 03:59:14;;;;;;;2.20;0.87;;;;;;;17.63;82.74;95496.41;4346009;32;20204;-62
2023/07/31 04:01:40;;;;;;;27.43;1.57;;;;;;;17.51;83.21;95499.84;4350820;32;20253;-62
2023/07/31 04:04:05;;;;;;;0.37;0.37;;;;;;;17.60;83.04;95500.56;4331628;32;20220;-61
2023/07/31 04:06:30;;;;;;;0.97;0.97;;;;;;;17.58;83.05;95499.31;4351936;32;20231;-62
2023/07/31 04:08:56;;;;;;;0.77;0.77;;;;;;;17.42;83.92;95491.13;4344271;32;20227;-61
2023/07/31 04:11:21;;;;;;;0.67;0.67;;;;;;;17.45;83.84;95495.84;4358045;32;20208;-62
2023/07/31 04:13:46;;;;;;;0.57;0.57;;;;;;;17.54;83.23;95493.81;4356997;32;20181;-61
2023/07/31 04:16:12;;;;;;;0.43;0.43;;;;;;;17.39;84.29;95486.44;4343420;32;20180;-61
2023/07/31 04:18:37;;;;;;;0.67;0.67;;;;;;;17.47;83.98;95482.84;4344433;32;20184;-61
2023/07/31 04:21:03;;;;;;;0.60;0.60;;;;;;;17.55;83.76;95476.63;4338087;32;20211;-62
2023/07/31 04:23:28;;;;;;;0.93;0.93;;;;;;;17.48;84.04;95485.19;4344666;32;20239;-61
2023/07/31 04:25:54;;;;;;;1.07;1.03;;;;;;;17.55;84.00;95490.03;4347296;32;20181;-61
2023/07/31 04:28:19;;;;;;;0.30;0.30;;;;;;;17.53;84.25;95486.88;4355542;32;20177;-61
2023/07/31 04:30:44;;;;;;;0.17;0.17;;;;;;;17.47;84.47;95482.84;4340656;32;20173;-61
2023/07/31 04:33:09;;;;;;;7.50;1.47;;;;;;;17.52;84.55;95486.09;4354173;32;20260;-61
2023/07/31 04:35:35;;;;;;;0.37;0.37;;;;;;;17.60;84.19;95489.03;4350435;32;20201;-61
2023/07/31 04:38:00;;;;;;;0.83;0.80;;;;;;;17.64;84.21;95487.25;4350164;32;20212;-61
2023/07/31 04:40:26;;;;;;;0.50;0.50;;;;;;;17.62;84.26;95484.91;4345737;32;20225;-61
2023/07/31 04:42:51;;;;;;;1.27;1.03;;;;;;;17.63;84.51;95483.00;4354739;32;20191;-61
2023/07/31 04:45:16;;;;;;;0.93;0.93;;;;;;;17.64;84.49;95485.38;4348102;32;20177;-61
2023/07/31 04:47:42;;;;;;;1.30;1.20;;;;;;;17.58;84.99;95477.84;4338618;32;20240;-61
2023/07/31 04:50:08;;;;;;;5.00;1.07;;;;;;;17.58;84.87;95477.84;4320904;32;20261;-61
2023/07/31 04:52:33;;;;;;;2.17;0.70;;;;;;;17.59;84.71;95469.47;4330519;32;20251;-61
2023/07/31 04:54:58;;;;;;;1.27;1.03;;;;;;;17.57;84.96;95476.28;4349387;32;20223;-61
2023/07/31 04:57:23;;;;;;;0.60;0.60;;;;;;;17.40;85.81;95474.59;4345800;32;20189;-61
2023/07/31 04:59:49;;;;;;;0.80;0.80;;;;;;;17.47;85.69;95469.44;4344990;32;20207;-62
2023/07/31 05:02:14;;;;;;;0.53;0.40;;;;;;;17.53;85.80;95468.13;4331985;32;20185;-61
2023/07/31 05:04:40;;;;;;;0.50;0.50;;;;;;;17.55;85.64;95473.94;4337251;32;20182;-61
2023/07/31 05:07:05;;;;;;;0.87;0.60;;;;;;;17.60;85.70;95464.88;4337232;32;20182;-61
2023/07/31 05:09:30;;;;;;;1.23;0.63;;;;;;;17.67;85.39;95476.66;4338785;32;20197;-61
2023/07/31 05:11:56;;;;;;;1.33;1.33;;;;;;;17.66;85.29;95474.31;4335344;32;20236;-61
2023/07/31 05:14:21;;;;;;;3.33;0.73;;;;;;;17.71;85.01;95471.41;4347979;32;20227;-61
2023/07/31 05:16:46;;;;;;;0.70;0.70;;;;;;;17.72;85.07;95473.75;4353792;32;20181;-61
2023/07/31 05:19:12;;;;;;;1.10;0.97;;;;;;;17.73;85.22;95472.63;4350551;32;20249;-61
2023/07/31 05:21:37;;;;;;;0.60;0.60;;;;;;;17.71;85.33;95471.41;4345621;32;20212;-61
2023/07/31 05:24:03;;;;;;;0.83;0.83;;;;;;;17.73;85.40;95479.91;4343084;32;20203;-62
2023/07/31 05:26:28;;;;;;;1.03;1.03;;;;;;;17.60;85.98;95476.41;4343529;32;20196;-61
2023/07/31 05:28:54;;;;;;;0.70;0.70;;;;;;;17.70;85.56;95475.19;4356457;32;20185;-61
2023/07/31 05:31:20;;;;;;;0.80;0.80;;;;;;;17.68;85.60;95478.22;4355066;32;20216;-61
2023/07/31 05:33:46;;;;;;;0.70;0.70;;;;;;;17.70;85.46;95470.62;4350653;32;20210;-61
2023/07/31 05:36:11;;;;;;;0.90;0.87;;;;;;;17.78;85.69;95468.94;4350245;32;20229;-61
2023/07/31 05:38:36;;;;;;;0.83;0.83;;;;;;;17.87;85.03;95458.91;4348036;32;20208;-61
2023/07/31 05:41:02;;;;;;;0.70;0.70;;;;;;;17.90;84.59;95468.94;4351985;32;20238;-61
2023/07/31 05:43:30;;;;;;;0.50;0.50;;;;;;;17.85;84.28;95464.59;4346762;32;20180;-61
2023/07/31 05:45:55;;;;;;;0.60;0.60;;;;;;;18.09;84.29;95460.31;4355487;32;20185;-62
2023/07/31 05:48:21;;;;;;;0.63;0.63;;;;;;;18.10;84.57;95462.66;4342684;32;20303;-64
2023/07/31 05:50:46;;;;;;;0.70;0.70;;;;;;;18.22;83.42;95456.50;4358203;32;20189;-61
2023/07/31 05:53:11;;;;;;;1.30;0.97;;;;;;;18.26;82.58;95462.00;4356809;32;20200;-61
2023/07/31 05:55:37;;;;;;;0.83;0.83;;;;;;;18.18;81.70;95458.31;4346942;32;20195;-62
2023/07/31 05:58:02;;;;;;;0.67;0.67;;;;;;;18.18;82.08;95469.03;4343848;32;20219;-62
2023/07/31 06:00:27;;;;;;;0.70;0.70;;;;;;;18.22;82.05;95459.19;4357312;32;20177;-61
2023/07/31 06:02:53;;;;;;;2.87;1.00;;;;;;;18.17;81.78;95459.41;4343273;32;20203;-61
2023/07/31 06:05:18;;;;;;;0.47;0.47;;;;;;;18.29;81.34;95464.00;4356925;32;20177;-61
2023/07/31 06:07:44;;;;;;;0.67;0.67;;;;;;;18.30;81.68;95460.97;4350471;32;20288;-61
2023/07/31 06:10:09;;;;;;;3.37;0.67;;;;;;;18.32;81.98;95461.41;4347394;32;20303;-61
2023/07/31 06:12:35;;;;;;;0.70;0.70;;;;;;;18.35;81.37;95457.25;4344889;32;20223;-61
2023/07/31 06:15:02;;;;;;;0.70;0.70;;;;;;;18.43;82.07;95459.81;4339139;32;20255;-62
2023/07/31 06:17:28;;;;;;;0.67;0.67;;;;;;;18.51;81.44;95456.22;4342219;32;20207;-62
2023/07/31 06:19:53;;;;;;;1.10;0.40;;;;;;;18.60;80.91;95461.50;4348897;32;20230;-62
2023/07/31 06:22:18;;;;;;;2.80;1.10;;;;;;;18.59;81.49;95462.59;4344070;32;20196;-61
2023/07/31 06:24:44;;;;;;;0.20;0.20;;;;;;;18.67;80.02;95466.28;4341376;32;20227;-61
2023/07/31 06:27:10;;;;;;;0.60;0.60;;;;;;;18.68;78.21;95470.53;4341052;32;20212;-61
2023/07/31 06:29:35;;;;;;;0.77;0.77;;;;;;;18.69;78.70;95472.91;4344989;32;20193;-61
2023/07/31 06:32:01;;;;;;;0.67;0.67;;;;;;;18.74;78.48;95479.91;4341538;32;20207;-61
2023/07/31 06:34:26;;;;;;;0.53;0.53;;;;;;;18.73;77.47;95475.66;4339653;32;20251;-61
2023/07/31 06:36:51;;;;;;;0.43;0.43;;;;;;;18.76;78.14;95485.72;4341833;32;20197;-62
2023/07/31 06:39:16;;;;;;;0.50;0.50;;;;;;;18.77;77.87;95476.53;4355712;32;20189;-62
2023/07/31 06:41:42;;;;;;;0.40;0.40;;;;;;;18.76;77.67;95478.44;4347888;32;20240;-61
2023/07/31 06:44:08;;;;;;;0.87;0.60;;;;;;;18.70;77.95;95473.69;4342854;32;20195;-61
2023/07/31 06:46:33;;;;;;;0.40;0.40;;;;;;;18.75;77.38;95473.41;4339962;32;20185;-61
2023/07/31 06:48:59;;;;;;;0.40;0.40;;;;;;;18.64;78.23;95480.41;4347630;32;20218;-61
2023/07/31 06:51:24;;;;;;;0.50;0.50;;;;;;;18.66;76.61;95470.09;4339744;32;20256;-61
2023/07/31 06:53:50;;;;;;;2.23;1.00;;;;;;;18.52;76.90;95483.88;4346206;32;20181;-61
2023/07/31 06:56:15;;;;;;;0.50;0.50;;;;;;;18.72;77.03;95474.09;4342206;32;20185;-62
2023/07/31 06:58:40;;;;;;;0.50;0.50;;;;;;;18.71;76.61;95480.59;4351146;32;20252;-62
2023/07/31 07:01:05;;;;;;;0.30;0.30;;;;;;;18.82;76.25;95471.72;4339145;32;20273;-61
2023/07/31 07:03:32;;;;;;;0.50;0.50;;;;;;;18.83;77.98;95459.84;4345917;32;20185;-61
2023/07/31 07:05:58;;;;;;;0.93;0.93;;;;;;;19.05;75.91;95457.72;4349895;32;20235;-61
2023/07/31 07:08:24;;;;;;;0.63;0.57;;;;;;;19.06;75.99;95449.31;4339851;32;20194;-61
2023/07/31 07:10:49;;;;;;;1.57;0.90;;;;;;;19.04;76.58;95453.47;4354468;32;20231;-61
2023/07/31 07:13:15;;;;;;;0.33;0.33;;;;;;;18.99;76.66;95457.19;4355123;32;20189;-61
2023/07/31 07:15:40;;;;;;;1.07;0.90;;;;;;;19.09;76.28;95459.41;4346023;32;20310;-61
2023/07/31 07:18:06;;;;;;;0.40;0.40;;;;;;;19.07;76.62;95456.28;4337945;32;20225;-61
2023/07/31 07:20:31;;;;;;;0.50;0.50;;;;;;;19.16;76.19;95454.19;4332828;32;20193;-62
2023/07/31 07:22:57;;;;;;;0.50;0.50;;;;;;;19.02;76.27;95453.81;4348193;32;20306;-61
2023/07/31 07:25:22;;;;;;;0.33;0.33;;;;;;;19.26;76.52;95460.19;4340747;32;20190;-62
2023/07/31 07:27:48;;;;;;;0.60;0.60;;;;;;;19.18;76.59;95456.53;4341060;32;20207;-61
2023/07/31 07:30:14;;;;;;;0.40;0.40;;;;;;;19.17;75.65;95461.13;4350872;32;20180;-62
2023/07/31 07:32:39;;;;;;;1.27;0.67;;;;;;;19.39;75.75;95454.41;4353448;32;20185;-62
2023/07/31 07:35:06;;;;;;;0.40;0.40;;;;;;;19.50;75.04;95457.41;4340664;32;20199;-61
2023/07/31 07:37:31;;;;;;;0.60;0.60;;;;;;;19.52;74.64;95455.16;4342360;32;20193;-61
2023/07/31 07:39:57;;;;;;;0.43;0.43;;;;;;;19.62;74.56;95448.44;4338300;32;20246;-61
2023/07/31 07:42:22;;;;;;;0.30;0.30;;;;;;;19.56;74.45;95447.91;4339170;32;20202;-62
2023/07/31 07:44:48;;;;;;;0.83;0.60;;;;;;;19.57;72.62;95446.78;4346938;32;20242;-61
2023/07/31 07:47:13;;;;;;;0.87;0.77;;;;;;;19.67;72.13;95446.28;4339454;32;20200;-61
2023/07/31 07:49:38;;;;;;;0.30;0.30;;;;;;;19.79;71.61;95446.19;4351254;32;20189;-62
2023/07/31 07:52:04;;;;;;;0.23;0.23;;;;;;;19.90;72.01;95439.16;4339050;32;20193;-62
2023/07/31 07:54:30;;;;;;;1.53;0.83;;;;;;;19.88;70.03;95438.72;4346970;32;20186;-61
2023/07/31 07:56:55;;;;;;;0.60;0.60;;;;;;;19.89;70.57;95432.19;4338888;32;20189;-61
2023/07/31 07:59:20;;;;;;;0.53;0.53;;;;;;;19.90;70.42;95428.37;4342614;32;20193;-61
2023/07/31 08:01:46;;;;;;;0.40;0.40;;;;;;;19.94;71.18;95422.28;4342469;32;20181;-61
2023/07/31 08:04:11;;;;;;;2.10;1.20;;;;;;;20.02;71.33;95424.78;4341313;32;20181;-61
2023/07/31 08:06:36;;;;;;;0.30;0.30;;;;;;;19.84;69.74;95413.59;4341370;32;20233;-61
2023/07/31 08:09:06;;;;;;;1.83;0.83;;;;;;;19.87;70.55;95412.91;4343356;32;20216;-62
2023/07/31 08:11:32;;;;;;;0.30;0.30;;;;;;;19.99;70.80;95408.53;4339881;32;20190;-61
2023/07/31 08:13:57;;;;;;;0.50;0.50;;;;;;;20.05;70.11;95412.53;4343998;32;20288;-61
2023/07/31 08:16:22;;;;;;;0.70;0.70;;;;;;;20.17;70.17;95415.09;4341212;32;20199;-62
2023/07/31 08:18:48;;;;;;;1.40;1.40;;;;;;;20.25;69.65;95419.50;4343706;32;20184;-62
2023/07/31 08:21:14;;;;;;;1.00;1.00;;;;;;;20.12;67.99;95423.47;4338904;32;20224;-61
2023/07/31 08:23:40;;;;;;;4.53;1.23;;;;;;;20.20;68.56;95425.94;4341166;32;20236;-61
2023/07/31 08:26:05;;;;;;;1.70;1.40;;;;;;;20.21;68.15;95421.34;4342821;32;20189;-61
2023/07/31 08:28:31;;;;;;;0.57;0.57;;;;;;;20.24;69.85;95426.03;4341908;32;20215;-62
2023/07/31 08:30:56;;;;;;;0.43;0.43;;;;;;;20.25;67.96;95422.22;4340321;32;20224;-63
2023/07/31 08:33:21;;;;;;;1.10;1.00;;;;;;;20.36;67.51;95428.63;4341074;32;20189;-62
2023/07/31 08:35:47;;;;;;;1.40;0.83;;;;;;;20.35;67.07;95418.97;4345766;32;20200;-62
2023/07/31 08:38:12;;;;;;;0.70;0.70;;;;;;;20.42;68.07;95424.53;4341204;32;20176;-62
2023/07/31 08:40:38;;;;;;;0.30;0.30;;;;;;;20.44;67.25;95426.88;4344526;32;20200;-62
2023/07/31 08:43:04;;;;;;;0.50;0.50;;;;;;;20.37;67.41;95435.56;4346821;32;20184;-62
2023/07/31 08:45:30;;;;;;;0.33;0.33;;;;;;;20.49;66.59;95421.22;4357338;32;20216;-62
2023/07/31 08:47:57;;;;;;;0.30;0.30;;;;;;;20.35;65.73;95421.66;4349073;32;20304;-62
2023/07/31 08:50:23;;;;;;;0.73;0.50;;;;;;;20.34;67.23;95420.09;4345730;32;20196;-62
2023/07/31 08:52:50;;;;;;;2.73;1.20;;;;;;;20.40;66.85;95413.31;4352947;32;20178;-62
2023/07/31 08:55:16;;;;;;;0.20;0.20;;;;;;;20.37;66.20;95410.56;4353752;32;20217;-63
2023/07/31 08:57:42;;;;;;;1.53;1.10;;;;;;;20.33;69.01;95421.25;4346338;32;20231;-62
2023/07/31 09:00:10;;;;;;;0.10;0.10;;;;;;;20.34;67.48;95416.62;4343760;32;20223;-63
2023/07/31 09:02:57;;;;;;;0.43;0.43;;;;;;;20.35;67.23;95416.28;4340515;32;20189;-62
2023/07/31 09:05:23;;;;;;;1.17;0.67;;;;;;;20.28;69.05;95413.44;4352001;32;20243;-62
2023/07/31 09:07:50;;;;;;;0.47;0.47;;;;;;;20.23;68.11;95408.31;4353299;32;20184;-62
2023/07/31 09:10:15;;;;;;;1.87;1.17;;;;;;;20.33;68.31;95413.16;4353230;32;20197;-63
2023/07/31 09:12:41;;;;;;;0.37;0.37;;;;;;;20.22;68.75;95417.53;4344260;32;20276;-62
2023/07/31 09:15:08;;;;;;;2.43;1.17;;;;;;;20.32;68.92;95408.91;4357600;32;20223;-66
2023/07/31 09:17:36;;;;;;;0.20;0.20;;;;;;;20.31;68.09;95412.72;4340419;32;20258;-66
2023/07/31 09:20:21;;;;;;;0.40;0.40;;;;;;;20.39;66.40;95411.75;4353438;32;20190;-66
2023/07/31 09:22:48;;;;;;;0.10;0.10;;;;;;;20.49;67.62;95407.72;4351244;32;20235;-65
2023/07/31 09:25:24;;;;;;;0.63;0.63;;;;;;;20.61;66.14;95412.97;4343109;32;20189;-65
2023/07/31 09:27:52;;;;;;;0.40;0.40;;;;;;;20.59;66.16;95396.38;4318963;32;20232;-66
2023/07/31 09:30:18;;;;;;;0.60;0.60;;;;;;;20.75;65.58;95399.00;4334870;32;20170;-66
2023/07/31 09:32:45;;;;;;;0.33;0.33;;;;;;;20.84;65.50;95402.25;4343439;32;20253;-65
2023/07/31 09:35:31;;;;;;;0.20;0.20;;;;;;;20.91;66.12;95399.69;4352765;32;20334;-66
2023/07/31 09:38:15;;;;;;;0.10;0.10;;;;;;;20.88;63.60;95405.78;4356335;32;20181;-65
2023/07/31 09:40:42;;;;;;;0.30;0.30;;;;;;;20.93;63.51;95402.81;4346665;32;20185;-65
2023/07/31 09:43:13;;;;;;;0.83;0.83;;;;;;;20.95;63.64;95391.66;4353634;32;20293;-64
2023/07/31 09:45:40;;;;;;;1.50;0.50;;;;;;;20.88;64.70;95398.50;4356466;32;20184;-65
2023/07/31 09:48:16;;;;;;;0.50;0.50;;;;;;;20.90;65.92;95393.53;4355705;32;20211;-64
2023/07/31 09:50:47;;;;;;;1.30;0.60;;;;;;;20.96;66.20;95387.84;4341027;32;20287;-65
2023/07/31 09:53:12;;;;;;;0.40;0.40;;;;;;;21.02;65.95;95387.16;4353147;32;20272;-64
2023/07/31 09:55:39;;;;;;;3.80;1.03;;;;;;;21.05;64.03;95380.28;4345057;32;20224;-65
2023/07/31 09:58:07;;;;;;;0.50;0.50;;;;;;;21.08;64.53;95383.03;4342502;32;20195;-65
2023/07/31 10:00:32;;;;;;;1.70;0.60;;;;;;;21.21;65.65;95370.19;4355197;32;20225;-64
2023/07/31 10:03:03;;;;;;;0.40;0.40;;;;;;;21.20;62.79;95369.41;4355750;32;20182;-65
2023/07/31 10:05:35;;;;;;;1.53;0.93;;;;;;;21.29;63.38;95365.69;4355102;32;20176;-65
2023/07/31 10:08:00;;;;;;;0.80;0.80;;;;;;;21.31;62.52;95355.31;4356180;32;20181;-66
2023/07/31 10:10:27;;;;;;;1.30;0.67;;;;;;;21.33;63.06;95363.84;4339370;32;20185;-65
2023/07/31 10:12:53;;;;;;;0.50;0.50;;;;;;;21.19;63.18;95348.16;4342210;32;20193;-65
2023/07/31 10:15:19;;;;;;;0.23;0.23;;;;;;;21.33;64.89;95353.81;4340831;32;20193;-65
2023/07/31 10:17:49;;;;;;;0.70;0.70;;;;;;;21.30;62.24;95348.34;4339831;32;20173;-65
2023/07/31 10:20:19;;;;;;;0.70;0.63;;;;;;;21.35;63.96;95337.25;4353407;32;20180;-66
2023/07/31 10:22:47;;;;;;;0.30;0.30;;;;;;;21.47;61.68;95323.56;4349733;32;20185;-66
2023/07/31 10:25:18;;;;;;;0.50;0.50;;;;;;;21.45;61.93;95321.22;4351004;32;20185;-66
2023/07/31 10:27:43;;;;;;;0.87;0.87;;;;;;;21.46;62.08;95317.38;4351510;32;20180;-66
2023/07/31 10:30:12;;;;;;;0.30;0.30;;;;;;;21.60;63.30;95323.00;4353343;32;20254;-66
2023/07/31 10:32:40;;;;;;;1.30;0.40;;;;;;;21.66;61.53;95326.16;4342546;32;20205;-65
2023/07/31 10:35:07;;;;;;;0.70;0.70;;;;;;;21.70;60.98;95315.41;4355176;32;20212;-65
2023/07/31 10:37:40;;;;;;;0.50;0.50;;;;;;;21.65;59.08;95310.31;4355820;32;20181;-65
2023/07/31 10:40:06;;;;;;;0.63;0.63;;;;;;;21.59;59.54;95307.19;4341894;32;20185;-65
2023/07/31 10:42:34;;;;;;;0.30;0.30;;;;;;;21.56;60.33;95305.97;4342461;32;20226;-65
2023/07/31 10:45:05;;;;;;;0.40;0.40;;;;;;;21.65;60.02;95300.28;4355482;32;20185;-65
2023/07/31 10:47:31;;;;;;;0.97;0.87;;;;;;;21.61;59.64;95308.34;4355019;32;20177;-65
2023/07/31 10:50:13;;;;;;;0.10;0.10;;;;;;;21.69;60.61;95311.94;4342063;32;20198;-65
2023/07/31 10:52:38;;;;;;;0.20;0.20;;;;;;;21.59;59.18;95315.28;4341211;32;20173;-65
2023/07/31 10:55:34;;;;;;;0.30;0.30;;;;;;;21.54;59.92;95310.19;4340524;32;20201;-65
2023/07/31 10:58:11;;;;;;;0.43;0.43;;;;;;;21.54;58.86;95316.34;4334890;32;20219;-65
2023/07/31 11:00:41;;;;;;;0.70;0.70;;;;;;;21.48;58.90;95307.00;4337087;32;20211;-65
2023/07/31 11:03:12;;;;;;;0.50;0.50;;;;;;;21.52;58.39;95304.34;4355965;32;20195;-65
2023/07/31 11:05:46;;;;;;;0.57;0.50;;;;;;;21.43;58.38;95295.72;4333490;32;20244;-65
2023/07/31 11:08:16;;;;;;;0.30;0.30;;;;;;;21.48;59.42;95303.53;4340092;32;20260;-64
2023/07/31 11:10:43;;;;;;;0.23;0.23;;;;;;;21.53;57.28;95295.12;4354440;32;20193;-65
2023/07/31 11:13:08;;;;;;;0.60;0.60;;;;;;;21.65;57.47;95284.09;4348807;32;20221;-65
2023/07/31 11:15:33;;;;;;;1.17;0.80;;;;;;;21.69;58.40;95289.56;4353040;32;20238;-65
2023/07/31 11:18:03;;;;;;;1.17;0.73;;;;;;;21.67;58.11;95283.72;4346347;32;20177;-64
2023/07/31 11:20:36;;;;;;;0.73;0.73;;;;;;;21.55;60.52;95282.81;4338140;32;20283;-64
2023/07/31 11:23:07;;;;;;;0.20;0.20;;;;;;;21.59;60.79;95282.87;4349362;32;20257;-65
2023/07/31 11:25:33;;;;;;;0.60;0.60;;;;;;;21.67;57.74;95283.72;4354585;32;20177;-65
2023/07/31 11:28:10;;;;;;;0.50;0.50;;;;;;;21.70;58.49;95278.38;4352590;32;20216;-65
2023/07/31 11:30:36;;;;;;;0.37;0.37;;;;;;;21.81;59.64;95278.53;4336918;32;20206;-65